sensor_id;sensor_type;location;lat;lon;timestamp;P1;durP1;ratioP1;P2;durP2;ratioP2
65279;SDS011;51878;55.748;48.742;2022-07-24T00:02:13;14.25;;;11.55;;
65279;SDS011;51878;55.748;48.742;2022-07-24T00:04:40;14.82;;;10.85;;
65279;SDS011;51878;55.748;48.742;2022-07-24T00:07:07;12.52;;;10.93;;
65279;SDS011;51878;55.748;48.742;2022-07-24T00:09:34;16.63;;;11.10;;
65279;SDS011;51878;55.748;48.742;2022-07-24T00:12:01;14.23;;;11.52;;
65279;SDS011;51878;55.748;48.742;2022-07-24T00:14:29;13.50;;;11.02;;
65279;SDS011;51878;55.748;48.742;2022-07-24T00:16:58;14.50;;;11.27;;
65279;SDS011;51878;55.748;48.742;2022-07-24T00:19:26;12.15;;;10.95;;
65279;SDS011;51878;55.748;48.742;2022-07-24T00:21:53;17.35;;;11.30;;
65279;SDS011;51878;55.748;48.742;2022-07-24T00:24:20;13.05;;;11.45;;
65279;SDS011;51878;55.748;48.742;2022-07-24T00:26:48;15.15;;;12.52;;
65279;SDS011;51878;55.748;48.742;2022-07-24T00:29:15;15.18;;;12.32;;
65279;SDS011;51878;55.748;48.742;2022-07-24T00:32:03;13.18;;;11.82;;
65279;SDS011;51878;55.748;48.742;2022-07-24T00:34:30;13.00;;;11.43;;
65279;SDS011;51878;55.748;48.742;2022-07-24T00:36:57;15.68;;;11.50;;
65279;SDS011;51878;55.748;48.742;2022-07-24T00:39:25;13.32;;;11.48;;
65279;SDS011;51878;55.748;48.742;2022-07-24T00:41:52;13.32;;;11.93;;
65279;SDS011;51878;55.748;48.742;2022-07-24T00:44:19;18.17;;;11.95;;
65279;SDS011;51878;55.748;48.742;2022-07-24T00:46:47;15.02;;;12.50;;
65279;SDS011;51878;55.748;48.742;2022-07-24T00:49:16;13.80;;;12.15;;
65279;SDS011;51878;55.748;48.742;2022-07-24T00:51:48;15.65;;;11.93;;
65279;SDS011;51878;55.748;48.742;2022-07-24T00:54:19;16.13;;;12.45;;
65279;SDS011;51878;55.748;48.742;2022-07-24T00:56:48;13.77;;;12.00;;
65279;SDS011;51878;55.748;48.742;2022-07-24T00:59:17;14.73;;;12.88;;
65279;SDS011;51878;55.748;48.742;2022-07-24T01:01:48;16.27;;;12.90;;
65279;SDS011;51878;55.748;48.742;2022-07-24T01:04:16;17.20;;;13.50;;
65279;SDS011;51878;55.748;48.742;2022-07-24T01:06:44;17.10;;;13.93;;
65279;SDS011;51878;55.748;48.742;2022-07-24T01:09:12;15.20;;;13.27;;
65279;SDS011;51878;55.748;48.742;2022-07-24T01:11:40;17.05;;;14.65;;
65279;SDS011;51878;55.748;48.742;2022-07-24T01:14:10;14.30;;;12.80;;
65279;SDS011;51878;55.748;48.742;2022-07-24T01:16:38;17.02;;;13.80;;
65279;SDS011;51878;55.748;48.742;2022-07-24T01:19:06;17.33;;;14.25;;
65279;SDS011;51878;55.748;48.742;2022-07-24T01:21:33;17.55;;;15.23;;
65279;SDS011;51878;55.748;48.742;2022-07-24T01:24:01;19.63;;;15.65;;
65279;SDS011;51878;55.748;48.742;2022-07-24T01:26:28;15.93;;;14.23;;
65279;SDS011;51878;55.748;48.742;2022-07-24T01:28:55;16.77;;;13.43;;
65279;SDS011;51878;55.748;48.742;2022-07-24T01:31:23;17.60;;;14.40;;
65279;SDS011;51878;55.748;48.742;2022-07-24T01:33:50;19.00;;;13.98;;
65279;SDS011;51878;55.748;48.742;2022-07-24T01:36:17;16.98;;;13.27;;
65279;SDS011;51878;55.748;48.742;2022-07-24T01:38:47;17.33;;;13.68;;
65279;SDS011;51878;55.748;48.742;2022-07-24T01:41:15;18.88;;;14.65;;
65279;SDS011;51878;55.748;48.742;2022-07-24T01:43:42;20.23;;;15.57;;
65279;SDS011;51878;55.748;48.742;2022-07-24T01:46:39;16.95;;;14.77;;
65279;SDS011;51878;55.748;48.742;2022-07-24T01:49:07;21.13;;;15.07;;
65279;SDS011;51878;55.748;48.742;2022-07-24T01:51:36;18.77;;;15.30;;
65279;SDS011;51878;55.748;48.742;2022-07-24T01:54:06;17.83;;;14.40;;
65279;SDS011;51878;55.748;48.742;2022-07-24T01:56:33;18.70;;;15.00;;
65279;SDS011;51878;55.748;48.742;2022-07-24T01:59:09;16.85;;;14.52;;
65279;SDS011;51878;55.748;48.742;2022-07-24T02:01:41;17.10;;;15.40;;
65279;SDS011;51878;55.748;48.742;2022-07-24T02:04:09;20.65;;;17.13;;
65279;SDS011;51878;55.748;48.742;2022-07-24T02:06:39;25.63;;;19.83;;
65279;SDS011;51878;55.748;48.742;2022-07-24T02:09:06;22.52;;;18.95;;
65279;SDS011;51878;55.748;48.742;2022-07-24T02:11:37;24.98;;;18.83;;
65279;SDS011;51878;55.748;48.742;2022-07-24T02:14:04;24.52;;;19.02;;
65279;SDS011;51878;55.748;48.742;2022-07-24T02:16:31;26.73;;;20.10;;
65279;SDS011;51878;55.748;48.742;2022-07-24T02:19:00;24.65;;;19.88;;
65279;SDS011;51878;55.748;48.742;2022-07-24T02:21:28;23.92;;;21.42;;
65279;SDS011;51878;55.748;48.742;2022-07-24T02:23:58;20.83;;;18.48;;
65279;SDS011;51878;55.748;48.742;2022-07-24T02:26:25;20.88;;;18.08;;
65279;SDS011;51878;55.748;48.742;2022-07-24T02:28:52;20.42;;;16.58;;
65279;SDS011;51878;55.748;48.742;2022-07-24T02:31:19;16.80;;;14.77;;
65279;SDS011;51878;55.748;48.742;2022-07-24T02:33:46;19.27;;;17.35;;
65279;SDS011;51878;55.748;48.742;2022-07-24T02:36:14;23.15;;;18.45;;
65279;SDS011;51878;55.748;48.742;2022-07-24T02:38:41;22.85;;;19.67;;
65279;SDS011;51878;55.748;48.742;2022-07-24T02:41:08;23.13;;;20.08;;
65279;SDS011;51878;55.748;48.742;2022-07-24T02:43:36;24.23;;;21.70;;
65279;SDS011;51878;55.748;48.742;2022-07-24T02:46:03;25.30;;;21.90;;
65279;SDS011;51878;55.748;48.742;2022-07-24T02:48:30;31.00;;;22.70;;
65279;SDS011;51878;55.748;48.742;2022-07-24T02:50:58;29.00;;;23.10;;
65279;SDS011;51878;55.748;48.742;2022-07-24T02:53:28;31.67;;;24.27;;
65279;SDS011;51878;55.748;48.742;2022-07-24T02:55:55;33.40;;;25.23;;
65279;SDS011;51878;55.748;48.742;2022-07-24T02:58:22;30.23;;;24.92;;
65279;SDS011;51878;55.748;48.742;2022-07-24T03:00:49;30.27;;;25.50;;
65279;SDS011;51878;55.748;48.742;2022-07-24T03:03:17;35.03;;;25.10;;
65279;SDS011;51878;55.748;48.742;2022-07-24T03:05:44;39.35;;;25.00;;
65279;SDS011;51878;55.748;48.742;2022-07-24T03:08:11;29.40;;;24.77;;
65279;SDS011;51878;55.748;48.742;2022-07-24T03:10:38;33.08;;;25.00;;
65279;SDS011;51878;55.748;48.742;2022-07-24T03:13:05;31.08;;;22.20;;
65279;SDS011;51878;55.748;48.742;2022-07-24T03:15:32;28.85;;;20.05;;
65279;SDS011;51878;55.748;48.742;2022-07-24T03:18:00;21.15;;;17.95;;
65279;SDS011;51878;55.748;48.742;2022-07-24T03:20:28;19.45;;;16.40;;
65279;SDS011;51878;55.748;48.742;2022-07-24T03:22:56;18.38;;;14.98;;
65279;SDS011;51878;55.748;48.742;2022-07-24T03:25:23;18.77;;;15.15;;
65279;SDS011;51878;55.748;48.742;2022-07-24T03:27:51;18.73;;;14.55;;
65279;SDS011;51878;55.748;48.742;2022-07-24T03:30:37;16.75;;;13.68;;
65279;SDS011;51878;55.748;48.742;2022-07-24T03:33:11;15.20;;;13.30;;
65279;SDS011;51878;55.748;48.742;2022-07-24T03:35:38;17.85;;;13.38;;
65279;SDS011;51878;55.748;48.742;2022-07-24T03:38:06;17.73;;;13.43;;
65279;SDS011;51878;55.748;48.742;2022-07-24T03:40:33;24.02;;;14.00;;
65279;SDS011;51878;55.748;48.742;2022-07-24T03:43:00;22.10;;;13.63;;
65279;SDS011;51878;55.748;48.742;2022-07-24T03:45:28;22.60;;;13.13;;
65279;SDS011;51878;55.748;48.742;2022-07-24T03:47:56;14.07;;;12.52;;
65279;SDS011;51878;55.748;48.742;2022-07-24T03:50:26;14.25;;;12.45;;
65279;SDS011;51878;55.748;48.742;2022-07-24T03:52:53;13.52;;;12.20;;
65279;SDS011;51878;55.748;48.742;2022-07-24T03:55:22;13.73;;;11.38;;
65279;SDS011;51878;55.748;48.742;2022-07-24T03:57:50;14.48;;;12.05;;
65279;SDS011;51878;55.748;48.742;2022-07-24T04:00:46;12.68;;;11.27;;
65279;SDS011;51878;55.748;48.742;2022-07-24T04:03:24;13.38;;;12.07;;
65279;SDS011;51878;55.748;48.742;2022-07-24T04:06:59;12.80;;;11.48;;
65279;SDS011;51878;55.748;48.742;2022-07-24T04:09:29;15.73;;;12.63;;
65279;SDS011;51878;55.748;48.742;2022-07-24T04:12:05;13.18;;;11.55;;
65279;SDS011;51878;55.748;48.742;2022-07-24T04:14:32;14.32;;;12.13;;
65279;SDS011;51878;55.748;48.742;2022-07-24T04:17:00;16.00;;;11.73;;
65279;SDS011;51878;55.748;48.742;2022-07-24T04:19:29;14.60;;;11.70;;
65279;SDS011;51878;55.748;48.742;2022-07-24T04:22:09;17.52;;;12.80;;
65279;SDS011;51878;55.748;48.742;2022-07-24T04:24:43;18.10;;;13.10;;
65279;SDS011;51878;55.748;48.742;2022-07-24T04:27:13;14.35;;;12.82;;
65279;SDS011;51878;55.748;48.742;2022-07-24T04:30:01;13.38;;;11.98;;
65279;SDS011;51878;55.748;48.742;2022-07-24T04:32:38;12.85;;;11.55;;
65279;SDS011;51878;55.748;48.742;2022-07-24T04:35:06;15.80;;;11.75;;
65279;SDS011;51878;55.748;48.742;2022-07-24T04:37:36;15.38;;;11.95;;
65279;SDS011;51878;55.748;48.742;2022-07-24T04:40:06;14.57;;;12.45;;
65279;SDS011;51878;55.748;48.742;2022-07-24T04:42:37;12.95;;;11.48;;
65279;SDS011;51878;55.748;48.742;2022-07-24T04:45:05;11.27;;;10.18;;
65279;SDS011;51878;55.748;48.742;2022-07-24T04:47:35;11.38;;;10.27;;
65279;SDS011;51878;55.748;48.742;2022-07-24T04:50:03;13.38;;;11.05;;
65279;SDS011;51878;55.748;48.742;2022-07-24T04:52:32;107.47;;;38.58;;
65279;SDS011;51878;55.748;48.742;2022-07-24T04:55:08;14.35;;;11.02;;
65279;SDS011;51878;55.748;48.742;2022-07-24T04:57:49;90.10;;;56.58;;
65279;SDS011;51878;55.748;48.742;2022-07-24T05:00:16;11.32;;;9.90;;
65279;SDS011;51878;55.748;48.742;2022-07-24T05:02:43;12.23;;;10.82;;
65279;SDS011;51878;55.748;48.742;2022-07-24T05:05:11;11.85;;;10.65;;
65279;SDS011;51878;55.748;48.742;2022-07-24T05:07:38;11.25;;;10.20;;
65279;SDS011;51878;55.748;48.742;2022-07-24T05:10:06;14.43;;;11.82;;
65279;SDS011;51878;55.748;48.742;2022-07-24T05:12:33;11.30;;;10.13;;
65279;SDS011;51878;55.748;48.742;2022-07-24T05:15:01;12.73;;;10.45;;
65279;SDS011;51878;55.748;48.742;2022-07-24T05:17:29;11.43;;;10.23;;
65279;SDS011;51878;55.748;48.742;2022-07-24T05:19:57;10.40;;;9.40;;
65279;SDS011;51878;55.748;48.742;2022-07-24T05:22:24;11.70;;;10.50;;
65279;SDS011;51878;55.748;48.742;2022-07-24T05:24:51;13.55;;;10.50;;
65279;SDS011;51878;55.748;48.742;2022-07-24T05:27:22;12.80;;;10.75;;
65279;SDS011;51878;55.748;48.742;2022-07-24T05:29:49;11.60;;;10.05;;
65279;SDS011;51878;55.748;48.742;2022-07-24T05:32:16;11.43;;;10.15;;
65279;SDS011;51878;55.748;48.742;2022-07-24T05:34:44;11.43;;;10.25;;
65279;SDS011;51878;55.748;48.742;2022-07-24T05:37:11;16.60;;;14.85;;
65279;SDS011;51878;55.748;48.742;2022-07-24T05:39:38;12.63;;;11.32;;
65279;SDS011;51878;55.748;48.742;2022-07-24T05:42:06;12.10;;;10.07;;
65279;SDS011;51878;55.748;48.742;2022-07-24T05:44:33;11.52;;;10.45;;
65279;SDS011;51878;55.748;48.742;2022-07-24T05:47:00;12.13;;;10.00;;
65279;SDS011;51878;55.748;48.742;2022-07-24T05:49:27;11.55;;;10.45;;
65279;SDS011;51878;55.748;48.742;2022-07-24T05:51:54;10.65;;;9.52;;
65279;SDS011;51878;55.748;48.742;2022-07-24T05:54:22;12.98;;;9.90;;
65279;SDS011;51878;55.748;48.742;2022-07-24T05:56:55;10.27;;;9.32;;
65279;SDS011;51878;55.748;48.742;2022-07-24T05:59:28;14.73;;;9.80;;
65279;SDS011;51878;55.748;48.742;2022-07-24T06:01:55;18.80;;;13.40;;
65279;SDS011;51878;55.748;48.742;2022-07-24T06:04:22;14.77;;;12.90;;
65279;SDS011;51878;55.748;48.742;2022-07-24T06:06:49;14.23;;;12.85;;
65279;SDS011;51878;55.748;48.742;2022-07-24T06:09:17;14.85;;;12.95;;
65279;SDS011;51878;55.748;48.742;2022-07-24T06:11:46;14.30;;;12.90;;
65279;SDS011;51878;55.748;48.742;2022-07-24T06:14:14;14.73;;;13.32;;
65279;SDS011;51878;55.748;48.742;2022-07-24T06:16:41;16.30;;;13.50;;
65279;SDS011;51878;55.748;48.742;2022-07-24T06:19:10;17.45;;;13.40;;
65279;SDS011;51878;55.748;48.742;2022-07-24T06:21:37;13.02;;;11.65;;
65279;SDS011;51878;55.748;48.742;2022-07-24T06:24:04;12.90;;;11.70;;
65279;SDS011;51878;55.748;48.742;2022-07-24T06:26:32;15.25;;;12.75;;
65279;SDS011;51878;55.748;48.742;2022-07-24T06:29:13;13.90;;;12.35;;
65279;SDS011;51878;55.748;48.742;2022-07-24T06:31:44;13.00;;;11.70;;
65279;SDS011;51878;55.748;48.742;2022-07-24T06:34:11;14.30;;;12.90;;
65279;SDS011;51878;55.748;48.742;2022-07-24T06:36:38;12.27;;;11.07;;
65279;SDS011;51878;55.748;48.742;2022-07-24T06:39:05;13.40;;;11.63;;
65279;SDS011;51878;55.748;48.742;2022-07-24T06:41:33;13.52;;;12.10;;
65279;SDS011;51878;55.748;48.742;2022-07-24T06:44:00;13.98;;;12.05;;
65279;SDS011;51878;55.748;48.742;2022-07-24T06:46:27;13.25;;;12.05;;
65279;SDS011;51878;55.748;48.742;2022-07-24T06:48:55;14.75;;;11.95;;
65279;SDS011;51878;55.748;48.742;2022-07-24T06:51:22;12.73;;;11.52;;
65279;SDS011;51878;55.748;48.742;2022-07-24T06:53:49;13.65;;;12.25;;
65279;SDS011;51878;55.748;48.742;2022-07-24T06:56:16;14.00;;;12.55;;
65279;SDS011;51878;55.748;48.742;2022-07-24T06:58:44;14.20;;;12.13;;
65279;SDS011;51878;55.748;48.742;2022-07-24T07:01:11;13.48;;;12.07;;
65279;SDS011;51878;55.748;48.742;2022-07-24T07:03:38;12.98;;;11.60;;
65279;SDS011;51878;55.748;48.742;2022-07-24T07:06:05;14.20;;;12.52;;
65279;SDS011;51878;55.748;48.742;2022-07-24T07:08:33;13.93;;;12.52;;
65279;SDS011;51878;55.748;48.742;2022-07-24T07:11:00;13.35;;;12.05;;
65279;SDS011;51878;55.748;48.742;2022-07-24T07:13:27;12.93;;;11.82;;
65279;SDS011;51878;55.748;48.742;2022-07-24T07:15:54;13.18;;;11.95;;
65279;SDS011;51878;55.748;48.742;2022-07-24T07:18:21;13.35;;;11.50;;
65279;SDS011;51878;55.748;48.742;2022-07-24T07:20:48;14.65;;;11.20;;
65279;SDS011;51878;55.748;48.742;2022-07-24T07:23:23;12.23;;;11.13;;
65279;SDS011;51878;55.748;48.742;2022-07-24T07:25:56;12.38;;;11.18;;
65279;SDS011;51878;55.748;48.742;2022-07-24T07:28:23;11.85;;;10.73;;
65279;SDS011;51878;55.748;48.742;2022-07-24T07:30:50;12.10;;;10.90;;
65279;SDS011;51878;55.748;48.742;2022-07-24T07:33:17;11.05;;;10.00;;
65279;SDS011;51878;55.748;48.742;2022-07-24T07:35:45;12.00;;;10.48;;
65279;SDS011;51878;55.748;48.742;2022-07-24T07:38:12;11.60;;;10.40;;
65279;SDS011;51878;55.748;48.742;2022-07-24T07:40:43;11.50;;;9.90;;
65279;SDS011;51878;55.748;48.742;2022-07-24T07:43:10;12.55;;;10.18;;
65279;SDS011;51878;55.748;48.742;2022-07-24T07:45:38;11.70;;;9.60;;
65279;SDS011;51878;55.748;48.742;2022-07-24T07:48:05;12.52;;;10.38;;
65279;SDS011;51878;55.748;48.742;2022-07-24T07:50:32;12.68;;;9.88;;
65279;SDS011;51878;55.748;48.742;2022-07-24T07:52:59;10.98;;;9.98;;
65279;SDS011;51878;55.748;48.742;2022-07-24T07:55:27;12.02;;;9.80;;
65279;SDS011;51878;55.748;48.742;2022-07-24T07:57:54;10.38;;;9.38;;
65279;SDS011;51878;55.748;48.742;2022-07-24T08:00:36;11.55;;;10.30;;
65279;SDS011;51878;55.748;48.742;2022-07-24T08:03:03;10.30;;;9.25;;
65279;SDS011;51878;55.748;48.742;2022-07-24T08:05:31;10.35;;;9.27;;
65279;SDS011;51878;55.748;48.742;2022-07-24T08:07:58;13.88;;;9.63;;
65279;SDS011;51878;55.748;48.742;2022-07-24T08:10:25;11.52;;;9.60;;
65279;SDS011;51878;55.748;48.742;2022-07-24T08:12:52;10.70;;;9.80;;
65279;SDS011;51878;55.748;48.742;2022-07-24T08:15:19;10.63;;;9.60;;
65279;SDS011;51878;55.748;48.742;2022-07-24T08:17:53;14.00;;;9.80;;
65279;SDS011;51878;55.748;48.742;2022-07-24T08:20:24;12.73;;;10.27;;
65279;SDS011;51878;55.748;48.742;2022-07-24T08:22:52;12.80;;;9.48;;
65279;SDS011;51878;55.748;48.742;2022-07-24T08:25:19;11.30;;;10.13;;
65279;SDS011;51878;55.748;48.742;2022-07-24T08:27:47;10.60;;;9.60;;
65279;SDS011;51878;55.748;48.742;2022-07-24T08:30:29;11.85;;;10.07;;
65279;SDS011;51878;55.748;48.742;2022-07-24T08:32:57;11.75;;;10.30;;
65279;SDS011;51878;55.748;48.742;2022-07-24T08:35:24;11.93;;;10.82;;
65279;SDS011;51878;55.748;48.742;2022-07-24T08:37:57;14.07;;;10.30;;
65279;SDS011;51878;55.748;48.742;2022-07-24T08:40:45;12.30;;;11.10;;
65279;SDS011;51878;55.748;48.742;2022-07-24T08:43:12;13.05;;;10.38;;
65279;SDS011;51878;55.748;48.742;2022-07-24T08:45:40;11.80;;;10.18;;
65279;SDS011;51878;55.748;48.742;2022-07-24T08:48:10;10.77;;;9.77;;
65279;SDS011;51878;55.748;48.742;2022-07-24T08:50:38;12.27;;;10.25;;
65279;SDS011;51878;55.748;48.742;2022-07-24T08:53:07;10.90;;;9.80;;
65279;SDS011;51878;55.748;48.742;2022-07-24T08:55:35;12.45;;;10.35;;
65279;SDS011;51878;55.748;48.742;2022-07-24T08:58:02;9.90;;;8.90;;
65279;SDS011;51878;55.748;48.742;2022-07-24T09:00:30;11.30;;;9.65;;
65279;SDS011;51878;55.748;48.742;2022-07-24T09:03:18;10.27;;;9.13;;
65279;SDS011;51878;55.748;48.742;2022-07-24T09:05:52;11.32;;;9.57;;
65279;SDS011;51878;55.748;48.742;2022-07-24T09:08:21;12.18;;;9.32;;
65279;SDS011;51878;55.748;48.742;2022-07-24T09:10:55;9.68;;;8.70;;
65279;SDS011;51878;55.748;48.742;2022-07-24T09:13:26;9.20;;;8.30;;
65279;SDS011;51878;55.748;48.742;2022-07-24T09:15:56;8.93;;;7.80;;
65279;SDS011;51878;55.748;48.742;2022-07-24T09:18:33;10.07;;;7.50;;
65279;SDS011;51878;55.748;48.742;2022-07-24T09:21:14;7.53;;;6.70;;
65279;SDS011;51878;55.748;48.742;2022-07-24T09:23:43;7.93;;;7.13;;
65279;SDS011;51878;55.748;48.742;2022-07-24T09:26:11;8.38;;;6.72;;
65279;SDS011;51878;55.748;48.742;2022-07-24T09:31:18;7.68;;;6.95;;
65279;SDS011;51878;55.748;48.742;2022-07-24T09:33:49;7.47;;;6.78;;
65279;SDS011;51878;55.748;48.742;2022-07-24T09:36:17;8.07;;;7.28;;
65279;SDS011;51878;55.748;48.742;2022-07-24T09:38:48;7.80;;;6.47;;
65279;SDS011;51878;55.748;48.742;2022-07-24T09:41:21;7.90;;;7.13;;
65279;SDS011;51878;55.748;48.742;2022-07-24T09:44:01;7.00;;;6.30;;
65279;SDS011;51878;55.748;48.742;2022-07-24T09:46:44;9.30;;;6.30;;
65279;SDS011;51878;55.748;48.742;2022-07-24T09:49:19;9.02;;;6.55;;
65279;SDS011;51878;55.748;48.742;2022-07-24T09:54:45;7.35;;;6.57;;
65279;SDS011;51878;55.748;48.742;2022-07-24T09:57:27;8.23;;;6.47;;
65279;SDS011;51878;55.748;48.742;2022-07-24T09:59:57;7.72;;;7.03;;
65279;SDS011;51878;55.748;48.742;2022-07-24T10:02:29;7.38;;;6.38;;
65279;SDS011;51878;55.748;48.742;2022-07-24T10:04:58;6.95;;;6.25;;
65279;SDS011;51878;55.748;48.742;2022-07-24T10:07:27;8.57;;;7.00;;
65279;SDS011;51878;55.748;48.742;2022-07-24T10:09:58;7.97;;;7.28;;
65279;SDS011;51878;55.748;48.742;2022-07-24T10:12:28;8.35;;;7.50;;
65279;SDS011;51878;55.748;48.742;2022-07-24T10:14:57;8.40;;;7.60;;
65279;SDS011;51878;55.748;48.742;2022-07-24T10:20:08;9.52;;;7.40;;
65279;SDS011;51878;55.748;48.742;2022-07-24T10:23:01;7.60;;;7.00;;
65279;SDS011;51878;55.748;48.742;2022-07-24T10:25:32;7.75;;;7.05;;
65279;SDS011;51878;55.748;48.742;2022-07-24T10:28:15;9.38;;;7.47;;
65279;SDS011;51878;55.748;48.742;2022-07-24T10:30:56;8.23;;;7.43;;
65279;SDS011;51878;55.748;48.742;2022-07-24T10:33:23;8.02;;;6.90;;
65279;SDS011;51878;55.748;48.742;2022-07-24T10:35:50;7.82;;;7.05;;
65279;SDS011;51878;55.748;48.742;2022-07-24T10:38:22;7.72;;;7.00;;
65279;SDS011;51878;55.748;48.742;2022-07-24T10:40:56;7.90;;;7.20;;
65279;SDS011;51878;55.748;48.742;2022-07-24T10:43:31;8.23;;;7.10;;
65279;SDS011;51878;55.748;48.742;2022-07-24T10:48:27;8.68;;;7.88;;
65279;SDS011;51878;55.748;48.742;2022-07-24T11:06:50;12.55;;;9.52;;
65279;SDS011;51878;55.748;48.742;2022-07-24T11:09:23;10.27;;;9.27;;
65279;SDS011;51878;55.748;48.742;2022-07-24T11:16:50;10.43;;;9.35;;
65279;SDS011;51878;55.748;48.742;2022-07-24T11:21:46;11.00;;;9.70;;
65279;SDS011;51878;55.748;48.742;2022-07-24T11:26:47;12.13;;;9.27;;
65279;SDS011;51878;55.748;48.742;2022-07-24T11:29:21;10.40;;;9.40;;
65279;SDS011;51878;55.748;48.742;2022-07-24T11:31:54;11.05;;;9.30;;
65279;SDS011;51878;55.748;48.742;2022-07-24T11:34:48;11.18;;;9.75;;
65279;SDS011;51878;55.748;48.742;2022-07-24T11:37:17;12.60;;;9.05;;
65279;SDS011;51878;55.748;48.742;2022-07-24T11:39:46;10.00;;;9.00;;
65279;SDS011;51878;55.748;48.742;2022-07-24T11:42:14;9.80;;;8.80;;
65279;SDS011;51878;55.748;48.742;2022-07-24T11:44:43;10.20;;;8.57;;
65279;SDS011;51878;55.748;48.742;2022-07-24T11:49:49;11.07;;;8.88;;
65279;SDS011;51878;55.748;48.742;2022-07-24T11:52:25;11.98;;;8.55;;
65279;SDS011;51878;55.748;48.742;2022-07-24T11:54:55;8.77;;;7.97;;
65279;SDS011;51878;55.748;48.742;2022-07-24T11:57:24;10.25;;;8.50;;
65279;SDS011;51878;55.748;48.742;2022-07-24T12:00:24;9.43;;;8.40;;
65279;SDS011;51878;55.748;48.742;2022-07-24T12:02:57;10.20;;;8.37;;
65279;SDS011;51878;55.748;48.742;2022-07-24T12:07:56;8.80;;;7.95;;
65279;SDS011;51878;55.748;48.742;2022-07-24T12:10:25;10.13;;;7.97;;
65279;SDS011;51878;55.748;48.742;2022-07-24T12:12:53;10.73;;;8.38;;
65279;SDS011;51878;55.748;48.742;2022-07-24T12:15:22;9.45;;;8.55;;
65279;SDS011;51878;55.748;48.742;2022-07-24T12:18:00;8.98;;;8.10;;
65279;SDS011;51878;55.748;48.742;2022-07-24T12:20:33;10.10;;;8.35;;
65279;SDS011;51878;55.748;48.742;2022-07-24T12:23:03;8.85;;;8.02;;
65279;SDS011;51878;55.748;48.742;2022-07-24T12:25:32;10.43;;;9.30;;
65279;SDS011;51878;55.748;48.742;2022-07-24T12:30:42;10.50;;;8.95;;
65279;SDS011;51878;55.748;48.742;2022-07-24T12:33:26;10.27;;;9.18;;
65279;SDS011;51878;55.748;48.742;2022-07-24T12:36:00;10.18;;;9.18;;
65279;SDS011;51878;55.748;48.742;2022-07-24T12:38:37;9.55;;;8.65;;
65279;SDS011;51878;55.748;48.742;2022-07-24T12:41:07;10.85;;;9.45;;
65279;SDS011;51878;55.748;48.742;2022-07-24T12:43:54;10.10;;;8.93;;
65279;SDS011;51878;55.748;48.742;2022-07-24T12:46:30;9.57;;;8.77;;
65279;SDS011;51878;55.748;48.742;2022-07-24T12:49:00;10.30;;;9.18;;
65279;SDS011;51878;55.748;48.742;2022-07-24T12:54:17;13.57;;;9.18;;
65279;SDS011;51878;55.748;48.742;2022-07-24T12:57:09;10.45;;;8.98;;
65279;SDS011;51878;55.748;48.742;2022-07-24T12:59:45;11.88;;;9.15;;
65279;SDS011;51878;55.748;48.742;2022-07-24T13:02:17;9.98;;;9.07;;
65279;SDS011;51878;55.748;48.742;2022-07-24T13:04:47;10.53;;;9.00;;
65279;SDS011;51878;55.748;48.742;2022-07-24T13:07:17;10.15;;;8.98;;
65279;SDS011;51878;55.748;48.742;2022-07-24T13:09:45;11.70;;;9.25;;
65279;SDS011;51878;55.748;48.742;2022-07-24T13:12:13;12.10;;;9.32;;
65279;SDS011;51878;55.748;48.742;2022-07-24T13:14:41;11.00;;;9.80;;
65279;SDS011;51878;55.748;48.742;2022-07-24T13:17:10;10.40;;;9.30;;
65279;SDS011;51878;55.748;48.742;2022-07-24T13:19:40;10.05;;;9.15;;
65279;SDS011;51878;55.748;48.742;2022-07-24T13:22:09;13.18;;;9.35;;
65279;SDS011;51878;55.748;48.742;2022-07-24T13:24:37;11.15;;;9.10;;
65279;SDS011;51878;55.748;48.742;2022-07-24T13:27:05;10.20;;;9.20;;
65279;SDS011;51878;55.748;48.742;2022-07-24T13:29:33;10.82;;;9.55;;
65279;SDS011;51878;55.748;48.742;2022-07-24T13:32:01;10.55;;;9.55;;
65279;SDS011;51878;55.748;48.742;2022-07-24T13:34:30;10.05;;;9.05;;
65279;SDS011;51878;55.748;48.742;2022-07-24T13:36:58;10.20;;;9.20;;
65279;SDS011;51878;55.748;48.742;2022-07-24T13:39:25;10.45;;;9.35;;
65279;SDS011;51878;55.748;48.742;2022-07-24T13:41:53;9.90;;;8.90;;
65279;SDS011;51878;55.748;48.742;2022-07-24T13:44:20;12.38;;;9.25;;
65279;SDS011;51878;55.748;48.742;2022-07-24T13:46:47;12.50;;;9.88;;
65279;SDS011;51878;55.748;48.742;2022-07-24T13:49:16;10.70;;;9.43;;
65279;SDS011;51878;55.748;48.742;2022-07-24T13:51:44;14.35;;;9.35;;
65279;SDS011;51878;55.748;48.742;2022-07-24T13:55:25;10.10;;;9.10;;
65279;SDS011;51878;55.748;48.742;2022-07-24T13:58:19;10.33;;;9.30;;
65279;SDS011;51878;55.748;48.742;2022-07-24T14:01:29;10.10;;;9.13;;
65279;SDS011;51878;55.748;48.742;2022-07-24T14:04:04;12.27;;;9.75;;
65279;SDS011;51878;55.748;48.742;2022-07-24T14:06:56;11.05;;;9.60;;
65279;SDS011;51878;55.748;48.742;2022-07-24T14:09:24;10.05;;;8.93;;
65279;SDS011;51878;55.748;48.742;2022-07-24T14:11:52;12.60;;;9.60;;
65279;SDS011;51878;55.748;48.742;2022-07-24T14:14:20;14.02;;;9.77;;
65279;SDS011;51878;55.748;48.742;2022-07-24T14:16:47;10.10;;;8.95;;
65279;SDS011;51878;55.748;48.742;2022-07-24T14:19:14;10.55;;;9.55;;
65279;SDS011;51878;55.748;48.742;2022-07-24T14:21:41;15.60;;;9.93;;
65279;SDS011;51878;55.748;48.742;2022-07-24T14:24:17;11.43;;;9.88;;
65279;SDS011;51878;55.748;48.742;2022-07-24T14:26:46;11.70;;;9.35;;
65279;SDS011;51878;55.748;48.742;2022-07-24T14:29:14;10.23;;;8.85;;
65279;SDS011;51878;55.748;48.742;2022-07-24T14:31:42;10.02;;;9.00;;
65279;SDS011;51878;55.748;48.742;2022-07-24T14:34:09;11.88;;;9.27;;
65279;SDS011;51878;55.748;48.742;2022-07-24T14:36:36;11.38;;;9.23;;
65279;SDS011;51878;55.748;48.742;2022-07-24T14:39:04;13.73;;;9.50;;
65279;SDS011;51878;55.748;48.742;2022-07-24T14:41:33;10.25;;;9.35;;
65279;SDS011;51878;55.748;48.742;2022-07-24T14:44:01;11.13;;;9.07;;
65279;SDS011;51878;55.748;48.742;2022-07-24T14:46:32;9.93;;;8.93;;
65279;SDS011;51878;55.748;48.742;2022-07-24T14:49:00;12.85;;;9.80;;
65279;SDS011;51878;55.748;48.742;2022-07-24T14:51:27;10.32;;;9.30;;
65279;SDS011;51878;55.748;48.742;2022-07-24T14:53:57;11.20;;;9.80;;
65279;SDS011;51878;55.748;48.742;2022-07-24T14:56:27;10.07;;;9.18;;
65279;SDS011;51878;55.748;48.742;2022-07-24T14:58:57;10.85;;;9.48;;
65279;SDS011;51878;55.748;48.742;2022-07-24T15:01:30;10.82;;;9.60;;
65279;SDS011;51878;55.748;48.742;2022-07-24T15:04:04;10.40;;;9.40;;
65279;SDS011;51878;55.748;48.742;2022-07-24T15:06:36;10.73;;;8.68;;
65279;SDS011;51878;55.748;48.742;2022-07-24T15:09:06;11.98;;;9.35;;
65279;SDS011;51878;55.748;48.742;2022-07-24T15:11:33;11.98;;;9.57;;
65279;SDS011;51878;55.748;48.742;2022-07-24T15:14:01;12.98;;;10.00;;
65279;SDS011;51878;55.748;48.742;2022-07-24T15:16:28;10.93;;;9.40;;
65279;SDS011;51878;55.748;48.742;2022-07-24T15:18:55;11.18;;;9.70;;
65279;SDS011;51878;55.748;48.742;2022-07-24T15:21:23;10.75;;;9.65;;
65279;SDS011;51878;55.748;48.742;2022-07-24T15:23:50;10.25;;;9.15;;